Time;durP1;ratioP1;P1;durP2;ratioP2;P2;SDS_P1;SDS_P2;PMS_P1;PMS_P2;Temp;Humidity;BMP_temperature;BMP_pressure;BME280_temperature;BME280_humidity;BME280_pressure;Samples;Min_cycle;Max_cycle;Signal;HPM_P1;HPM_P2
2023/07/18 00:01:56;;;;;;;3.33;2.30;;;14.60;1.00;;;;;;5036509;28;20723;-80
2023/07/18 00:04:22;;;;;;;3.10;2.20;;;14.60;1.00;;;;;;5019627;28;20174;-80
2023/07/18 00:06:47;;;;;;;2.87;2.10;;;14.80;99.90;;;;;;5019645;28;20222;-80
2023/07/18 00:09:13;;;;;;;2.37;1.90;;;14.80;85.70;;;;;;5036809;28;20170;-80
2023/07/18 00:11:38;;;;;;;103.40;7.60;;;14.80;95.70;;;;;;5036634;28;20281;-81
2023/07/18 00:14:04;;;;;;;4.10;2.07;;;14.70;1.00;;;;;;5019223;28;20201;-81
2023/07/18 00:16:30;;;;;;;3.17;2.10;;;14.60;1.00;;;;;;5037105;28;20182;-79
2023/07/18 00:18:56;;;;;;;3.60;2.50;;;14.40;1.00;;;;;;5037109;28;20198;-80
2023/07/18 00:21:21;;;;;;;3.47;2.07;;;14.40;98.60;;;;;;5018924;28;20190;-79
2023/07/18 00:23:47;;;;;;;3.67;2.43;;;14.40;99.90;;;;;;5035676;28;20285;-80
2023/07/18 00:26:13;;;;;;;3.20;2.40;;;14.40;1.00;;;;;;5019389;28;20198;-80
2023/07/18 00:28:39;;;;;;;2.97;2.10;;;14.50;99.90;;;;;;5019803;28;20191;-80
2023/07/18 00:31:04;;;;;;;3.90;2.30;;;14.20;1.00;;;;;;5018495;28;20221;-80
2023/07/18 00:33:30;;;;;;;4.13;2.30;;;14.20;1.00;;;;;;5037038;28;20572;-80
2023/07/18 00:35:55;;;;;;;2.97;2.00;;;14.20;99.90;;;;;;5036824;28;20180;-80
2023/07/18 00:38:21;;;;;;;2.90;1.90;;;14.10;1.00;;;;;;5019121;28;20251;-80
2023/07/18 00:40:49;;;;;;;3.57;2.40;;;13.90;99.90;;;;;;5036403;28;20225;-79
2023/07/18 00:43:15;;;;;;;3.10;2.20;;;13.70;99.90;;;;;;5030444;28;20246;-80
2023/07/18 00:45:43;;;;;;;4.10;2.30;;;13.60;1.00;;;;;;5003956;28;20190;-80
2023/07/18 00:48:09;;;;;;;2.80;2.10;;;13.60;1.00;;;;;;5018977;28;20293;-80
2023/07/18 00:50:35;;;;;;;2.80;2.10;;;13.60;1.00;;;;;;5018035;28;20681;-80
2023/07/18 00:53:01;;;;;;;2.47;2.10;;;13.70;1.00;;;;;;5018729;28;20170;-80
2023/07/18 00:55:27;;;;;;;5.37;2.40;;;13.70;1.00;;;;;;5036627;28;20317;-80
2023/07/18 00:57:54;;;;;;;4.00;2.30;;;13.70;1.00;;;;;;5004162;28;20187;-80
2023/07/18 01:00:22;;;;;;;3.43;2.30;;;13.70;1.00;;;;;;5014490;28;20210;-79
2023/07/18 01:02:49;;;;;;;3.57;2.33;;;13.60;1.00;;;;;;5015649;28;20673;-80
2023/07/18 01:05:19;;;;;;;2.47;2.10;;;13.70;99.90;;;;;;5015442;28;20561;-80
2023/07/18 01:07:48;;;;;;;2.83;2.37;;;13.70;1.00;;;;;;5016626;28;20197;-80
2023/07/18 01:10:23;;;;;;;4.00;2.40;;;13.80;1.00;;;;;;5016059;28;20190;-80
2023/07/18 01:12:50;;;;;;;2.37;2.00;;;13.70;1.00;;;;;;5016059;28;20159;-80
2023/07/18 01:15:16;;;;;;;102.33;10.93;;;13.70;1.00;;;;;;5016541;28;20166;-80
2023/07/18 01:17:44;;;;;;;72.10;10.67;;;13.50;99.90;;;;;;5014849;28;20313;-80
2023/07/18 01:20:13;;;;;;;43.07;4.27;;;13.40;99.90;;;;;;5015540;28;20205;-80
2023/07/18 01:22:39;;;;;;;37.00;5.53;;;13.30;1.00;;;;;;5016280;28;20198;-80
2023/07/18 01:25:05;;;;;;;2.93;2.10;;;13.20;1.00;;;;;;5015974;28;20194;-80
2023/07/18 01:27:31;;;;;;;2.80;2.00;;;13.20;1.00;;;;;;5014964;28;20202;-80
2023/07/18 01:29:57;;;;;;;2.83;2.10;;;13.10;1.00;;;;;;5025168;28;20178;-80
2023/07/18 01:32:22;;;;;;;3.60;2.17;;;13.00;99.90;;;;;;5027142;28;20317;-80
2023/07/18 01:34:48;;;;;;;3.17;2.07;;;13.00;99.90;;;;;;5035338;28;20176;-81
2023/07/18 01:37:15;;;;;;;2.37;2.13;;;13.20;1.00;;;;;;5017820;28;20711;-80
2023/07/18 01:39:41;;;;;;;3.83;2.13;;;13.20;99.90;;;;;;5034679;28;20185;-79
2023/07/18 01:42:07;;;;;;;3.03;2.20;;;13.20;99.90;;;;;;5035290;28;20198;-80
2023/07/18 01:44:33;;;;;;;2.40;2.00;;;13.30;1.00;;;;;;5017750;28;20178;-80
2023/07/18 01:46:59;;;;;;;3.27;2.13;;;13.30;99.90;;;;;;5017802;28;20194;-80
2023/07/18 01:49:25;;;;;;;3.77;2.40;;;13.20;1.00;;;;;;5035563;28;20202;-80
2023/07/18 01:51:50;;;;;;;3.80;2.30;;;13.10;1.00;;;;;;5034826;28;20190;-81
2023/07/18 01:54:16;;;;;;;2.43;2.20;;;13.00;1.00;;;;;;5035434;28;20173;-80
2023/07/18 01:56:41;;;;;;;3.10;2.37;;;12.90;99.90;;;;;;5017959;28;20282;-80
2023/07/18 01:59:07;;;;;;;3.37;2.20;;;12.90;1.00;;;;;;5018285;28;20180;-80
2023/07/18 02:01:33;;;;;;;3.73;2.07;;;12.90;99.90;;;;;;5034090;28;20217;-80
2023/07/18 02:03:59;;;;;;;3.60;2.30;;;12.80;1.00;;;;;;5017495;28;20740;-81
2023/07/18 02:06:25;;;;;;;5.03;2.40;;;12.70;1.00;;;;;;5020797;28;20235;-80
2023/07/18 02:08:51;;;;;;;2.83;2.17;;;12.80;1.00;;;;;;5038960;28;20170;-80
2023/07/18 02:11:17;;;;;;;2.43;2.10;;;12.70;1.00;;;;;;5020852;28;20194;-79
2023/07/18 02:13:43;;;;;;;3.43;2.20;;;12.60;99.90;;;;;;5021426;28;20181;-79
2023/07/18 02:16:08;;;;;;;5.93;2.20;;;12.50;1.00;;;;;;5038814;28;20174;-80
2023/07/18 02:18:34;;;;;;;3.40;2.00;;;12.50;99.90;;;;;;5039422;28;20174;-80
2023/07/18 02:20:59;;;;;;;2.90;2.37;;;12.50;40.00;;;;;;5038700;28;20194;-79
2023/07/18 02:23:25;;;;;;;3.17;2.17;;;12.50;1.00;;;;;;5021129;28;20226;-80
2023/07/18 02:25:51;;;;;;;1.90;1.67;;;12.60;1.00;;;;;;5021525;28;20182;-79
2023/07/18 02:28:16;;;;;;;2.73;2.20;;;12.40;99.90;;;;;;5021042;28;20202;-80
2023/07/18 02:30:42;;;;;;;2.30;1.90;;;12.30;1.00;;;;;;5020829;28;20280;-79
2023/07/18 02:33:08;;;;;;;2.27;1.93;;;12.30;99.90;;;;;;5039079;28;20177;-80
2023/07/18 02:35:34;;;;;;;2.37;2.00;;;12.30;26.80;;;;;;5020933;28;20170;-80
2023/07/18 02:38:00;;;;;;;3.23;2.10;;;12.30;1.00;;;;;;5020846;28;20743;-79
2023/07/18 02:40:25;;;;;;;2.57;2.10;;;12.30;99.90;;;;;;5034346;28;20203;-80
2023/07/18 02:42:51;;;;;;;2.67;2.10;;;12.40;85.50;;;;;;5015395;28;20185;-79
2023/07/18 02:45:16;;;;;;;2.90;2.17;;;12.40;1.00;;;;;;5038449;28;20174;-80
2023/07/18 02:47:42;;;;;;;2.97;2.10;;;12.30;99.90;;;;;;5038343;28;20222;-80
2023/07/18 02:50:08;;;;;;;3.00;2.37;;;12.40;99.90;;;;;;5037685;28;20200;-79
2023/07/18 02:52:34;;;;;;;2.83;2.20;;;12.50;1.00;;;;;;5038117;28;20193;-79
2023/07/18 02:55:00;;;;;;;2.97;2.20;;;12.30;49.30;;;;;;5020395;28;20641;-79
2023/07/18 02:57:26;;;;;;;3.03;2.00;;;12.20;1.00;;;;;;5038235;28;20262;-80
2023/07/18 02:59:51;;;;;;;3.73;2.40;;;12.20;1.00;;;;;;5037732;28;20184;-80
2023/07/18 03:02:17;;;;;;;3.23;2.30;;;12.00;99.90;;;;;;5020279;28;20221;-80
2023/07/18 03:04:46;;;;;;;2.33;2.00;;;12.00;1.00;;;;;;5037879;28;20173;-79
2023/07/18 03:07:13;;;;;;;3.00;2.17;;;12.00;1.00;;;;;;5037723;28;20207;-79
2023/07/18 03:09:39;;;;;;;4.27;2.40;;;12.20;99.90;;;;;;5019496;28;20261;-80
2023/07/18 03:12:06;;;;;;;4.93;2.40;;;12.10;56.40;;;;;;5020006;28;20241;-79
2023/07/18 03:14:31;;;;;;;4.00;2.10;;;12.10;99.90;;;;;;5020257;28;20661;-79
2023/07/18 03:16:57;;;;;;;37.40;4.33;;;11.90;1.00;;;;;;5037425;28;20178;-79
2023/07/18 03:19:23;;;;;;;4.37;2.20;;;11.90;1.00;;;;;;5037758;28;20695;-80
2023/07/18 03:21:48;;;;;;;2.80;1.90;;;11.90;1.00;;;;;;5036652;28;20284;-81
2023/07/18 03:24:14;;;;;;;2.70;1.90;;;11.90;1.00;;;;;;5019905;28;20178;-79
2023/07/18 03:26:39;;;;;;;2.80;2.13;;;11.90;99.30;;;;;;5020107;28;20205;-79
2023/07/18 03:29:06;;;;;;;2.17;1.90;;;11.70;1.00;;;;;;5037741;28;20201;-79
2023/07/18 03:31:33;;;;;;;4.30;2.20;;;11.80;99.90;;;;;;5018873;28;20194;-79
2023/07/18 03:33:58;;;;;;;3.10;2.13;;;11.60;1.00;;;;;;5037405;28;20171;-79
2023/07/18 03:36:24;;;;;;;2.53;2.10;;;11.60;1.00;;;;;;5019654;28;20178;-79
2023/07/18 03:38:49;;;;;;;2.53;1.83;;;11.50;1.00;;;;;;5019682;28;20182;-80
2023/07/18 03:41:15;;;;;;;3.67;2.37;;;11.50;1.00;;;;;;5014887;28;20205;-80
2023/07/18 03:43:41;;;;;;;2.70;2.10;;;11.40;99.90;;;;;;5012202;28;20178;-79
2023/07/18 03:46:06;;;;;;;2.97;2.07;;;11.30;99.90;;;;;;5019834;28;20620;-79
2023/07/18 03:48:32;;;;;;;3.80;2.27;;;11.40;99.90;;;;;;5018921;28;20174;-80
2023/07/18 03:51:02;;;;;;;3.57;2.10;;;11.40;99.90;;;;;;5018187;28;20198;-80
2023/07/18 03:53:29;;;;;;;3.57;2.00;;;11.50;1.00;;;;;;5019100;28;20206;-79
2023/07/18 03:56:02;;;;;;;5.67;2.03;;;11.40;1.00;;;;;;5019109;28;20185;-79
2023/07/18 03:58:28;;;;;;;3.17;2.00;;;11.40;1.00;;;;;;5019479;28;20178;-80
2023/07/18 04:00:53;;;;;;;2.97;2.17;;;11.40;1.00;;;;;;5057184;23;20226;-79
2023/07/18 04:03:19;;;;;;;2.90;2.10;;;11.50;99.90;;;;;;5033686;28;20174;-79
2023/07/18 04:05:45;;;;;;;3.97;2.20;;;11.60;1.00;;;;;;5016067;28;20171;-79
2023/07/18 04:08:11;;;;;;;3.37;2.17;;;11.60;1.00;;;;;;5033607;28;20226;-79
2023/07/18 04:10:36;;;;;;;2.90;2.23;;;11.60;1.00;;;;;;5032681;28;20221;-79
2023/07/18 04:13:02;;;;;;;3.00;2.07;;;11.60;99.90;;;;;;5015650;28;20220;-79
2023/07/18 04:15:27;;;;;;;4.27;2.10;;;11.50;1.00;;;;;;5015488;28;20178;-79
2023/07/18 04:17:53;;;;;;;2.97;2.20;;;11.60;99.90;;;;;;5015648;28;20185;-79
2023/07/18 04:20:19;;;;;;;2.70;2.00;;;11.60;1.00;;;;;;5014914;28;20186;-79
2023/07/18 04:22:45;;;;;;;2.83;2.07;;;11.50;99.90;;;;;;5033167;28;20174;-79
2023/07/18 04:25:11;;;;;;;2.60;2.23;;;11.60;1.00;;;;;;5015448;28;20181;-79
2023/07/18 04:27:36;;;;;;;2.87;1.80;;;11.60;99.90;;;;;;5014797;28;20217;-79
2023/07/18 04:30:03;;;;;;;2.87;2.07;;;11.70;1.00;;;;;;5032692;28;20186;-79
2023/07/18 04:32:29;;;;;;;2.90;2.10;;;11.70;1.00;;;;;;5015587;28;20203;-79
2023/07/18 04:34:54;;;;;;;3.93;2.20;;;11.90;83.20;;;;;;5033081;28;20548;-79
2023/07/18 04:37:20;;;;;;;2.57;2.10;;;11.90;1.00;;;;;;5032834;28;20182;-79
2023/07/18 04:39:46;;;;;;;2.97;2.17;;;11.90;1.00;;;;;;5032390;28;20181;-78
2023/07/18 04:42:11;;;;;;;2.27;1.97;;;11.90;99.90;;;;;;5032446;28;20209;-80
2023/07/18 04:44:37;;;;;;;2.53;2.00;;;11.90;99.90;;;;;;5015430;28;20181;-79
2023/07/18 04:47:03;;;;;;;2.57;2.13;;;11.80;99.90;;;;;;5015277;28;20206;-79
2023/07/18 04:49:29;;;;;;;2.00;1.80;;;11.70;93.50;;;;;;5014883;28;20179;-76
2023/07/18 04:51:55;;;;;;;1.90;1.70;;;14.00;1.00;;;;;;5014314;28;20201;-79
2023/07/18 04:54:20;;;;;;;2.33;1.80;;;15.20;99.90;;;;;;5030509;28;20204;-79
2023/07/18 04:56:46;;;;;;;2.00;1.80;;;15.90;1.00;;;;;;5023010;28;20206;-79
2023/07/18 04:59:11;;;;;;;2.10;1.60;;;16.70;99.90;;;;;;5049243;28;20177;-79
2023/07/18 05:01:39;;;;;;;2.40;1.80;;;16.80;19.70;;;;;;5025256;28;20220;-79
2023/07/18 05:04:05;;;;;;;2.70;1.90;;;16.80;18.20;;;;;;5026061;28;20710;-79
2023/07/18 05:06:31;;;;;;;3.00;2.20;;;16.50;99.90;;;;;;5052263;28;20197;-79
2023/07/18 05:08:56;;;;;;;2.13;1.87;;;16.40;1.00;;;;;;5052299;28;20561;-78
2023/07/18 05:11:22;;;;;;;3.53;2.10;;;16.50;1.00;;;;;;5034921;28;20189;-79
2023/07/18 05:13:47;;;;;;;3.73;1.83;;;16.50;99.90;;;;;;5035123;28;20174;-80
2023/07/18 05:16:13;;;;;;;4.17;2.00;;;16.40;99.90;;;;;;5035316;28;20170;-79
2023/07/18 05:18:38;;;;;;;2.57;1.60;;;16.50;1.00;;;;;;5035701;28;20239;-80
2023/07/18 05:21:04;;;;;;;2.33;1.80;;;16.80;1.00;;;;;;5035287;28;20193;-80
2023/07/18 05:23:30;;;;;;;3.07;2.17;;;16.70;1.00;;;;;;5036462;28;20178;-79
2023/07/18 05:25:56;;;;;;;2.43;1.97;;;16.80;89.90;;;;;;5053639;28;20174;-79
2023/07/18 05:28:22;;;;;;;4.07;1.90;;;16.90;1.00;;;;;;5053677;28;20205;-79
2023/07/18 05:30:47;;;;;;;3.40;2.20;;;17.00;1.00;;;;;;5052236;28;20205;-79
2023/07/18 05:33:13;;;;;;;6.17;1.97;;;16.90;99.90;;;;;;5035659;28;20173;-79
2023/07/18 05:35:39;;;;;;;2.30;2.00;;;16.90;99.90;;;;;;5045009;28;20177;-82
2023/07/18 05:38:05;;;;;;;2.67;1.90;;;16.80;1.00;;;;;;5044620;28;20189;-82
2023/07/18 05:40:30;;;;;;;2.63;1.80;;;16.60;27.50;;;;;;5018862;28;20671;-82
2023/07/18 05:42:56;;;;;;;2.97;2.10;;;16.90;36.60;;;;;;5018683;28;20229;-82
2023/07/18 05:45:21;;;;;;;2.67;1.83;;;17.00;1.00;;;;;;5018614;28;20182;-81
2023/07/18 05:47:47;;;;;;;2.13;1.73;;;17.40;1.00;;;;;;5036311;28;20256;-81
2023/07/18 05:50:13;;;;;;;3.70;2.20;;;17.60;1.00;;;;;;5036460;28;20171;-82
2023/07/18 05:52:38;;;;;;;3.23;2.33;;;17.60;99.90;;;;;;5018481;28;20178;-83
2023/07/18 05:55:05;;;;;;;3.77;1.97;;;17.40;99.90;;;;;;5018353;28;20181;-83
2023/07/18 05:57:31;;;;;;;2.73;2.00;;;17.60;1.00;;;;;;5036696;28;20182;-82
2023/07/18 05:59:56;;;;;;;3.87;2.30;;;17.90;30.50;;;;;;5019597;28;20285;-79
2023/07/18 06:02:22;;;;;;;2.40;1.90;;;17.60;99.90;;;;;;5020094;28;20213;-79
2023/07/18 06:04:48;;;;;;;2.80;2.07;;;17.90;1.00;;;;;;5019619;28;20198;-79
2023/07/18 06:07:15;;;;;;;3.00;2.00;;;18.30;1.00;;;;;;5019770;28;20202;-79
2023/07/18 06:09:42;;;;;;;4.57;2.10;;;18.50;99.90;;;;;;5019243;28;20174;-79
2023/07/18 06:12:08;;;;;;;3.13;2.40;;;18.90;1.00;;;;;;5037510;28;20190;-79
2023/07/18 06:14:33;;;;;;;2.60;2.27;;;18.70;99.90;;;;;;5019940;28;20166;-79
2023/07/18 06:16:59;;;;;;;2.63;2.00;;;18.00;1.00;;;;;;5019836;28;20620;-79
2023/07/18 06:19:25;;;;;;;3.33;2.40;;;17.70;1.00;;;;;;5037285;28;20221;-75
2023/07/18 06:21:51;;;;;;;2.60;1.97;;;18.30;99.90;;;;;;5018903;28;20229;-79
2023/07/18 06:24:16;;;;;;;3.50;2.17;;;18.60;1.00;;;;;;5037362;28;20171;-79
2023/07/18 06:26:48;;;;;;;3.17;2.30;;;18.90;1.00;;;;;;5019793;28;20202;-79
2023/07/18 06:29:15;;;;;;;3.57;2.40;;;18.20;1.00;;;;;;5037353;28;20178;-79
2023/07/18 06:31:42;;;;;;;3.67;2.20;;;18.00;23.20;;;;;;5037091;28;20201;-79
2023/07/18 06:34:07;;;;;;;3.77;2.67;;;17.80;1.00;;;;;;5019588;28;20221;-79
2023/07/18 06:36:33;;;;;;;5.90;2.90;;;18.10;1.00;;;;;;5016213;28;20661;-79
2023/07/18 06:38:58;;;;;;;5.73;2.80;;;18.50;99.90;;;;;;5008713;28;20189;-79
2023/07/18 06:41:24;;;;;;;6.87;3.27;;;18.70;1.00;;;;;;5002677;28;20292;-79
2023/07/18 06:43:49;;;;;;;2.63;1.83;;;18.70;1.00;;;;;;5025607;28;20292;-79
2023/07/18 06:46:15;;;;;;;2.47;1.93;;;18.50;1.00;;;;;;5017477;28;20190;-79
2023/07/18 06:48:41;;;;;;;5.37;3.13;;;18.20;99.90;;;;;;5018355;28;20186;-78
2023/07/18 06:51:06;;;;;;;2.87;2.20;;;17.90;1.00;;;;;;5018055;28;20281;-79
2023/07/18 06:53:33;;;;;;;4.33;2.47;;;17.80;1.00;;;;;;5019780;28;20239;-79
2023/07/18 06:55:58;;;;;;;2.30;1.80;;;17.70;99.90;;;;;;5037313;28;20229;-78
2023/07/18 06:58:24;;;;;;;4.20;2.47;;;17.60;99.90;;;;;;5017523;28;20178;-79
2023/07/18 07:00:50;;;;;;;8.80;4.23;;;17.70;1.00;;;;;;5032079;28;20228;-79
2023/07/18 07:03:15;;;;;;;17.13;7.10;;;17.90;1.00;;;;;;5029703;28;20213;-78
2023/07/18 07:05:42;;;;;;;4.70;2.00;;;18.20;99.90;;;;;;5056560;28;20177;-79
2023/07/18 07:08:12;;;;;;;3.80;2.00;;;18.40;1.00;;;;;;5048797;28;20579;-78
2023/07/18 07:10:42;;;;;;;15.50;5.10;;;18.60;99.90;;;;;;5017793;28;20215;-78
2023/07/18 07:13:09;;;;;;;3.53;2.00;;;18.80;1.00;;;;;;5018489;28;20175;-78
2023/07/18 07:15:35;;;;;;;7.17;3.10;;;19.00;1.00;;;;;;5017658;28;20174;-78
2023/07/18 07:18:02;;;;;;;4.13;2.00;;;19.10;77.50;;;;;;5017894;28;20228;-78
2023/07/18 07:20:30;;;;;;;4.33;2.60;;;19.10;1.00;;;;;;5035078;28;20243;-78
2023/07/18 07:22:57;;;;;;;2.83;1.90;;;19.10;1.00;;;;;;5018531;28;20269;-78
2023/07/18 07:25:28;;;;;;;2.90;1.90;;;19.40;1.00;;;;;;5017903;28;20252;-77
2023/07/18 07:27:54;;;;;;;5.93;1.70;;;19.30;99.90;;;;;;5036454;28;20191;-79
2023/07/18 07:30:20;;;;;;;2.60;1.40;;;19.10;1.00;;;;;;5018203;28;20174;-79
2023/07/18 07:32:56;;;;;;;2.33;1.47;;;19.00;1.00;;;;;;5018639;28;20170;-78
2023/07/18 07:35:25;;;;;;;4.17;2.20;;;19.00;1.00;;;;;;5036106;28;20598;-78
2023/07/18 07:37:51;;;;;;;4.40;1.50;;;19.20;99.90;;;;;;5036352;28;20182;-78
2023/07/18 07:40:17;;;;;;;3.33;1.80;;;19.40;1.00;;;;;;5035761;28;20185;-79
2023/07/18 07:42:44;;;;;;;2.30;1.50;;;19.40;1.00;;;;;;5018009;28;20232;-78
2023/07/18 07:45:11;;;;;;;4.63;1.57;;;19.70;99.90;;;;;;5018193;28;20707;-79
2023/07/18 07:47:37;;;;;;;2.73;1.60;;;19.70;1.00;;;;;;5035813;28;20696;-79
2023/07/18 07:50:04;;;;;;;2.63;1.60;;;19.70;1.00;;;;;;5035518;28;20190;-78
2023/07/18 07:52:29;;;;;;;4.07;1.80;;;19.80;1.00;;;;;;5000321;28;20195;-78
2023/07/18 07:54:55;;;;;;;3.33;1.30;;;19.90;1.00;;;;;;5026797;28;20657;-78
2023/07/18 07:57:21;;;;;;;1.50;1.40;;;20.00;1.00;;;;;;5055198;28;20189;-78
2023/07/18 07:59:48;;;;;;;3.77;1.70;;;20.00;1.00;;;;;;5037272;28;20596;-78
2023/07/18 08:02:14;;;;;;;2.97;1.52;;;20.10;1.00;;;;;;5054734;28;20209;-78
2023/07/18 08:04:41;;;;;;;3.13;1.60;;;20.10;1.00;;;;;;5055376;28;20257;-78
2023/07/18 08:07:10;;;;;;;2.50;1.50;;;20.20;1.00;;;;;;5047543;28;20194;-79
2023/07/18 08:09:36;;;;;;;2.80;1.50;;;20.30;1.00;;;;;;5013796;28;20199;-76
2023/07/18 08:12:05;;;;;;;3.87;1.70;;;20.40;1.00;;;;;;4998327;28;20195;-79
2023/07/18 08:14:34;;;;;;;3.20;1.77;;;20.70;1.00;;;;;;5015431;28;20179;-79
2023/07/18 08:17:01;;;;;;;2.57;1.70;;;20.90;1.00;;;;;;4997817;28;20206;-79
2023/07/18 08:19:27;;;;;;;3.22;1.90;;;20.90;99.90;;;;;;4998069;28;20175;-78
2023/07/18 08:21:53;;;;;;;3.70;1.65;;;20.90;99.90;;;;;;4996658;28;20202;-79
2023/07/18 08:24:19;;;;;;;3.22;1.77;;;21.00;99.90;;;;;;5015450;28;20733;-79
2023/07/18 08:26:45;;;;;;;2.63;1.90;;;21.00;99.90;;;;;;5015617;28;20724;-79
2023/07/18 08:29:11;;;;;;;2.17;1.65;;;21.10;99.90;;;;;;4997344;28;20179;-79
2023/07/18 08:31:36;;;;;;;3.17;1.70;;;21.10;99.90;;;;;;4997057;28;20244;-79
2023/07/18 08:34:07;;;;;;;4.75;1.73;;;21.30;99.90;;;;;;5014759;28;20175;-78
2023/07/18 08:36:35;;;;;;;2.58;1.90;;;21.50;99.90;;;;;;5014704;28;20160;-78
2023/07/18 08:39:01;;;;;;;2.47;1.80;;;21.60;99.90;;;;;;5014851;28;20183;-79
2023/07/18 08:41:28;;;;;;;2.58;1.83;;;21.70;99.90;;;;;;4996402;28;20246;-79
2023/07/18 08:43:54;;;;;;;3.42;1.60;;;21.80;99.90;;;;;;4997470;28;20700;-79
2023/07/18 08:46:20;;;;;;;4.22;2.15;;;22.00;99.90;;;;;;4997220;28;20206;-78
2023/07/18 08:48:47;;;;;;;2.53;1.80;;;22.20;99.90;;;;;;4996940;28;20195;-79
2023/07/18 08:51:14;;;;;;;2.65;1.83;;;22.20;99.90;;;;;;4996451;28;20269;-78
2023/07/18 08:53:42;;;;;;;2.83;1.70;;;22.10;99.90;;;;;;5014316;28;20159;-78
2023/07/18 08:56:09;;;;;;;3.45;1.60;;;22.20;99.90;;;;;;4997144;28;20266;-78
2023/07/18 08:58:38;;;;;;;3.40;2.00;;;22.40;99.90;;;;;;4996518;28;20175;-78
2023/07/18 09:01:08;;;;;;;2.38;1.70;;;22.50;99.90;;;;;;4996407;28;20211;-78
2023/07/18 09:03:34;;;;;;;1.90;1.67;;;22.70;99.90;;;;;;5014463;28;20171;-78
2023/07/18 09:06:03;;;;;;;2.17;1.60;;;22.60;99.90;;;;;;4997320;28;20198;-79
2023/07/18 09:08:42;;;;;;;2.38;1.60;;;22.90;99.90;;;;;;5013941;28;20334;-78
2023/07/18 09:11:07;;;;;;;3.03;1.65;;;22.90;99.90;;;;;;4996466;28;20191;-78
2023/07/18 09:13:40;;;;;;;4.40;1.90;;;22.90;99.90;;;;;;4996227;28;20163;-79
2023/07/18 09:16:12;;;;;;;2.28;1.63;;;22.90;99.90;;;;;;5014399;28;20190;-78
2023/07/18 09:18:38;;;;;;;2.63;1.77;;;23.00;99.90;;;;;;5014382;28;20178;-79
2023/07/18 09:21:10;;;;;;;2.67;1.77;;;23.00;99.90;;;;;;5013650;28;20609;-78
2023/07/18 09:23:43;;;;;;;4.28;1.90;;;23.20;99.90;;;;;;5014663;28;20228;-79
2023/07/18 09:26:12;;;;;;;2.63;1.60;;;23.20;99.90;;;;;;4996436;28;20205;-78
2023/07/18 09:28:38;;;;;;;2.70;1.75;;;23.40;99.90;;;;;;4997149;28;20199;-78
2023/07/18 09:31:15;;;;;;;3.20;1.73;;;23.30;99.90;;;;;;5014020;28;20579;-78
2023/07/18 09:33:41;;;;;;;4.57;1.92;;;23.30;99.90;;;;;;5014462;28;20182;-79
2023/07/18 09:36:11;;;;;;;3.38;1.80;;;23.40;99.90;;;;;;4996989;28;20171;-79
2023/07/18 09:38:37;;;;;;;2.85;1.45;;;23.50;99.90;;;;;;4997253;28;20171;-79
2023/07/18 09:41:03;;;;;;;2.33;1.50;;;23.80;99.90;;;;;;4995826;28;20696;-78
2023/07/18 09:43:29;;;;;;;2.80;1.90;;;23.90;99.90;;;;;;4997272;28;20221;-79
2023/07/18 09:45:54;;;;;;;3.33;1.90;;;23.80;99.90;;;;;;4997109;28;20229;-78
2023/07/18 09:48:22;;;;;;;3.60;1.80;;;23.90;99.90;;;;;;5014572;28;20554;-78
2023/07/18 09:50:50;;;;;;;1.95;1.63;;;23.90;99.90;;;;;;4996792;28;20187;-79
2023/07/18 09:53:21;;;;;;;6.10;1.90;;;23.80;99.90;;;;;;4997306;28;20181;-79
2023/07/18 09:55:48;;;;;;;2.70;1.60;;;23.70;99.90;;;;;;5014911;28;20166;-78
2023/07/18 09:58:17;;;;;;;3.20;2.00;;;23.90;99.90;;;;;;5014947;28;20249;-79
2023/07/18 10:00:43;;;;;;;2.92;1.60;;;24.20;99.90;;;;;;5039341;23;20280;-84
2023/07/18 10:03:09;;;;;;;3.28;1.60;;;24.30;99.90;;;;;;5058473;28;20214;-84
2023/07/18 10:05:35;;;;;;;3.15;1.60;;;24.00;99.90;;;;;;5049768;28;20591;-84
2023/07/18 10:08:05;;;;;;;2.45;1.83;;;24.10;99.90;;;;;;5052891;28;20212;-83
2023/07/18 10:10:31;;;;;;;3.28;1.60;;;24.50;99.90;;;;;;5059121;28;20198;-84
2023/07/18 10:13:01;;;;;;;2.97;1.80;;;24.90;99.90;;;;;;5060265;28;20243;-83
2023/07/18 10:15:27;;;;;;;2.35;1.70;;;25.00;99.90;;;;;;5042245;28;20237;-83
2023/07/18 10:17:53;;;;;;;2.85;1.80;;;25.30;99.90;;;;;;5033388;28;20531;-85
2023/07/18 10:20:22;;;;;;;2.30;1.73;;;25.20;99.90;;;;;;5041649;28;20196;-83
2023/07/18 10:22:56;;;;;;;3.03;1.90;;;24.90;99.90;;;;;;5060160;28;20190;-83
2023/07/18 10:25:23;;;;;;;2.85;1.60;;;25.10;99.90;;;;;;5038491;28;20259;-84
2023/07/18 10:27:49;;;;;;;3.25;1.80;;;25.30;99.80;;;;;;5050796;28;20186;-83
2023/07/18 10:30:17;;;;;;;2.13;1.60;;;25.10;95.40;;;;;;5023691;28;20206;-84
2023/07/18 10:32:53;;;;;;;2.72;1.70;;;24.90;99.60;;;;;;5025616;28;20280;-83
2023/07/18 10:35:20;;;;;;;3.47;1.70;;;25.30;99.90;;;;;;5024343;28;20182;-81
2023/07/18 10:37:54;;;;;;;2.85;1.92;;;25.90;99.90;;;;;;5047154;28;20170;-81
2023/07/18 10:40:43;;;;;;;2.80;1.90;;;26.30;90.30;;;;;;5026038;28;20183;-81
2023/07/18 10:43:10;;;;;;;2.78;1.70;;;25.50;79.60;;;;;;5036337;28;20802;-81
2023/07/18 10:45:37;;;;;;;2.60;1.63;;;25.50;85.30;;;;;;5054616;28;20175;-82
2023/07/18 10:48:14;;;;;;;2.45;1.65;;;25.80;81.50;;;;;;5045547;28;20202;-82
2023/07/18 10:50:41;;;;;;;2.28;1.90;;;25.80;68.70;;;;;;5042459;28;20716;-82
2023/07/18 10:53:23;;;;;;;3.15;1.98;;;25.60;66.80;;;;;;5025513;28;20190;-82
2023/07/18 10:55:49;;;;;;;3.33;2.10;;;25.80;63.30;;;;;;5044314;28;20649;-80
2023/07/18 10:58:19;;;;;;;2.42;1.70;;;25.90;58.70;;;;;;5044753;28;20228;-81
2023/07/18 11:00:46;;;;;;;5.40;2.05;;;25.90;53.90;;;;;;5043927;28;20178;-83
2023/07/18 11:03:23;;;;;;;2.88;1.90;;;26.00;55.70;;;;;;5042666;28;20178;-85
2023/07/18 11:05:50;;;;;;;2.20;1.80;;;26.00;51.30;;;;;;5022190;28;20174;-84
2023/07/18 11:08:26;;;;;;;2.65;1.77;;;25.80;40.70;;;;;;5022782;28;20198;-82
2023/07/18 11:11:11;;;;;;;2.78;1.80;;;26.00;34.50;;;;;;5023292;28;20185;-83
2023/07/18 11:13:39;;;;;;;5.22;2.10;;;26.00;30.20;;;;;;5041057;28;20190;-83
2023/07/18 11:16:09;;;;;;;3.88;2.35;;;26.00;28.20;;;;;;5040474;28;20166;-84
2023/07/18 11:18:43;;;;;;;2.60;2.00;;;25.70;30.90;;;;;;5023216;28;20174;-84
2023/07/18 11:21:09;;;;;;;3.03;1.77;;;25.70;35.70;;;;;;5039912;28;20191;-84
2023/07/18 11:23:36;;;;;;;2.78;1.80;;;26.00;38.50;;;;;;5021422;28;20175;-82
2023/07/18 11:26:18;;;;;;;3.92;2.20;;;26.00;30.50;;;;;;5023864;28;20563;-83
2023/07/18 11:28:48;;;;;;;3.15;1.80;;;25.80;28.80;;;;;;5046739;28;20255;-83
2023/07/18 11:31:28;;;;;;;2.65;1.92;;;25.60;29.00;;;;;;5027389;28;20191;-83
2023/07/18 11:33:56;;;;;;;3.38;2.00;;;25.50;30.40;;;;;;5046701;28;20285;-82
2023/07/18 11:36:26;;;;;;;2.65;1.60;;;25.40;32.80;;;;;;5044974;28;20173;-82
2023/07/18 11:38:52;;;;;;;2.55;2.00;;;25.90;33.70;;;;;;5049140;28;20205;-84
2023/07/18 11:41:40;;;;;;;3.17;1.83;;;25.80;31.50;;;;;;5040109;28;20194;-85
2023/07/18 11:44:08;;;;;;;2.25;1.65;;;25.80;32.70;;;;;;5032301;28;20170;-83
2023/07/18 11:46:39;;;;;;;3.17;2.10;;;25.70;33.70;;;;;;5031956;28;20166;-82
2023/07/18 11:49:05;;;;;;;2.35;1.70;;;25.60;31.70;;;;;;5032495;28;20149;-82
2023/07/18 11:51:32;;;;;;;2.05;1.85;;;25.60;33.90;;;;;;5031745;28;20190;-86
2023/07/18 11:54:03;;;;;;;2.33;1.88;;;25.50;32.70;;;;;;5051249;28;20217;-84
2023/07/18 11:56:30;;;;;;;2.33;1.80;;;25.60;33.50;;;;;;5032779;28;20198;-83
2023/07/18 11:58:56;;;;;;;3.05;1.85;;;25.50;30.00;;;;;;5032521;28;20194;-84
2023/07/18 12:01:22;;;;;;;2.10;1.77;;;25.40;31.60;;;;;;5031243;28;20205;-84
2023/07/18 12:03:51;;;;;;;3.35;1.83;;;25.40;35.60;;;;;;5031762;28;20171;-84
2023/07/18 12:06:18;;;;;;;3.47;1.88;;;25.40;31.30;;;;;;5031378;28;20170;-85
2023/07/18 12:08:44;;;;;;;2.80;1.83;;;25.60;30.00;;;;;;5031173;28;20202;-85
2023/07/18 12:11:09;;;;;;;2.67;1.90;;;25.50;25.50;;;;;;5030772;28;20213;-83
2023/07/18 12:13:39;;;;;;;3.13;1.88;;;25.60;24.70;;;;;;5049000;28;20193;-85
2023/07/18 12:16:05;;;;;;;2.28;1.80;;;25.30;23.10;;;;;;5030282;28;20185;-84
2023/07/18 12:18:31;;;;;;;2.13;1.90;;;25.40;23.30;;;;;;5031276;28;20201;-83
2023/07/18 12:20:56;;;;;;;3.33;1.92;;;25.60;27.60;;;;;;5047911;28;20190;-87
2023/07/18 12:23:22;;;;;;;3.40;1.77;;;25.80;27.90;;;;;;5030175;28;20556;-83
2023/07/18 12:25:48;;;;;;;2.65;2.10;;;26.50;22.90;;;;;;5029662;28;20221;-83
2023/07/18 12:28:13;;;;;;;2.42;1.75;;;27.10;19.30;;;;;;5029807;28;20163;-85
2023/07/18 12:30:39;;;;;;;2.33;1.70;;;27.40;8.60;;;;;;5029268;28;20216;-83
2023/07/18 12:33:04;;;;;;;2.15;1.85;;;27.10;2.40;;;;;;5029657;28;20178;-86
2023/07/18 12:35:30;;;;;;;2.95;1.80;;;27.10;1.60;;;;;;5030935;28;20177;-83
2023/07/18 12:37:56;;;;;;;4.57;1.80;;;26.80;1.00;;;;;;5029847;28;20204;-84
2023/07/18 12:40:22;;;;;;;3.83;1.95;;;26.60;1.00;;;;;;5030132;28;20170;-84
2023/07/18 12:42:55;;;;;;;2.13;1.55;;;26.90;1.00;;;;;;5029564;28;20244;-83
2023/07/18 12:45:23;;;;;;;2.47;2.00;;;27.20;1.00;;;;;;5029730;28;20166;-87
2023/07/18 12:47:48;;;;;;;2.60;1.70;;;27.20;1.00;;;;;;5029656;28;20182;-83
2023/07/18 12:50:14;;;;;;;2.40;1.77;;;27.60;1.00;;;;;;5043924;28;20175;-82